Time;durP1;ratioP1;P1;durP2;ratioP2;P2;SDS_P1;SDS_P2;PMS_P1;PMS_P2;Temp;Humidity;BMP_temperature;BMP_pressure;BME280_temperature;BME280_humidity;BME280_pressure;Samples;Min_cycle;Max_cycle;Signal;HPM_P1;HPM_P2
2022/04/24 00:01:13;;;;;;;7.68;4.70;;;10.50;75.50;;;;;;4932390;29;20472;-69
2022/04/24 00:03:39;;;;;;;8.32;4.43;;;10.60;75.80;;;;;;4930155;29;20028;-69
2022/04/24 00:06:04;;;;;;;7.05;4.78;;;10.50;75.70;;;;;;4925282;29;20031;-69
2022/04/24 00:08:30;;;;;;;7.95;4.95;;;10.50;76.10;;;;;;4933299;29;20024;-69
2022/04/24 00:10:55;;;;;;;6.60;4.93;;;10.50;76.30;;;;;;4933457;29;20107;-70
2022/04/24 00:13:23;;;;;;;6.50;3.78;;;10.50;76.90;;;;;;4933024;29;20155;-69
2022/04/24 00:15:48;;;;;;;6.15;4.30;;;10.40;76.50;;;;;;4924721;29;20028;-69
2022/04/24 00:18:14;;;;;;;9.20;4.28;;;10.40;76.80;;;;;;4922160;29;20043;-70
2022/04/24 00:20:39;;;;;;;7.70;4.82;;;10.40;76.80;;;;;;4932767;29;20095;-69
2022/04/24 00:23:05;;;;;;;6.72;4.28;;;10.40;77.20;;;;;;4933728;29;20499;-70
2022/04/24 00:25:30;;;;;;;8.13;4.43;;;10.30;77.00;;;;;;4931569;29;20083;-68
2022/04/24 00:27:56;;;;;;;9.35;4.28;;;10.30;77.30;;;;;;4934567;29;20023;-69
2022/04/24 00:30:21;;;;;;;8.82;4.70;;;10.30;77.50;;;;;;4933310;29;20107;-69
2022/04/24 00:32:47;;;;;;;7.32;4.90;;;10.30;77.80;;;;;;4934364;29;20038;-68
2022/04/24 00:35:12;;;;;;;8.27;4.97;;;10.20;78.10;;;;;;4919512;29;20035;-69
2022/04/24 00:37:38;;;;;;;8.00;4.70;;;10.20;78.20;;;;;;4933760;29;20546;-69
2022/04/24 00:40:04;;;;;;;7.25;4.90;;;10.20;78.10;;;;;;4935770;29;20094;-69
2022/04/24 00:42:29;;;;;;;6.10;4.78;;;10.10;79.10;;;;;;4920797;29;20477;-69
2022/04/24 00:44:55;;;;;;;6.30;4.05;;;10.10;79.00;;;;;;4930806;29;20083;-69
2022/04/24 00:47:22;;;;;;;8.75;4.60;;;10.10;79.10;;;;;;4937710;29;20110;-69
2022/04/24 00:49:48;;;;;;;7.18;4.32;;;10.00;79.30;;;;;;4937042;29;20031;-69
2022/04/24 00:52:14;;;;;;;7.45;4.15;;;10.00;79.60;;;;;;4937471;29;20480;-69
2022/04/24 00:54:40;;;;;;;8.80;5.38;;;9.90;80.10;;;;;;4936960;29;20039;-69
2022/04/24 00:57:07;;;;;;;9.43;5.40;;;9.90;80.30;;;;;;4936586;29;20083;-69
2022/04/24 00:59:33;;;;;;;8.68;5.55;;;9.90;80.80;;;;;;4936791;29;20040;-69
2022/04/24 01:01:59;;;;;;;8.35;5.22;;;9.80;80.90;;;;;;4937600;29;20028;-69
2022/04/24 01:04:25;;;;;;;10.30;5.72;;;9.80;81.00;;;;;;4937221;29;20039;-70
2022/04/24 01:06:50;;;;;;;9.80;5.80;;;9.70;81.50;;;;;;4937358;29;20028;-70
2022/04/24 01:09:18;;;;;;;7.18;5.15;;;9.70;81.60;;;;;;4915830;29;20020;-70
2022/04/24 01:11:46;;;;;;;7.63;5.57;;;9.70;82.00;;;;;;4918846;29;20119;-70
2022/04/24 01:14:12;;;;;;;11.38;5.82;;;9.70;81.90;;;;;;4922367;29;20032;-70
2022/04/24 01:16:38;;;;;;;7.75;5.38;;;9.60;82.50;;;;;;4918591;29;20499;-70
2022/04/24 01:19:05;;;;;;;10.38;5.53;;;9.50;82.90;;;;;;4920611;29;20483;-70
2022/04/24 01:21:31;;;;;;;10.27;5.70;;;9.50;83.40;;;;;;4918328;29;20032;-70
2022/04/24 01:23:57;;;;;;;8.60;5.22;;;9.50;83.10;;;;;;4924974;29;20047;-70
2022/04/24 01:26:23;;;;;;;9.30;5.28;;;9.50;83.30;;;;;;4932091;29;20615;-69
2022/04/24 01:28:48;;;;;;;6.68;4.53;;;9.50;83.20;;;;;;4934530;29;20020;-69
2022/04/24 01:31:14;;;;;;;7.38;5.43;;;9.50;83.40;;;;;;4936776;29;20032;-69
2022/04/24 01:33:39;;;;;;;9.40;5.13;;;9.40;83.80;;;;;;4932389;29;20020;-70
2022/04/24 01:36:05;;;;;;;11.45;5.95;;;9.40;84.30;;;;;;4916614;29;20039;-69
2022/04/24 01:38:30;;;;;;;8.20;5.75;;;9.30;85.40;;;;;;4935417;29;20030;-68
2022/04/24 01:40:56;;;;;;;11.90;5.70;;;9.30;85.30;;;;;;4932023;29;20036;-69
2022/04/24 01:43:22;;;;;;;11.65;5.50;;;9.30;85.70;;;;;;4935823;29;20032;-69
2022/04/24 01:45:47;;;;;;;8.52;5.45;;;9.20;85.60;;;;;;4935603;29;20051;-69
2022/04/24 01:48:13;;;;;;;9.55;5.35;;;9.20;86.00;;;;;;4936403;29;20028;-68
2022/04/24 01:50:38;;;;;;;10.35;5.32;;;9.10;86.40;;;;;;4919302;29;20474;-68
2022/04/24 01:53:04;;;;;;;9.90;5.75;;;9.10;86.50;;;;;;4917834;29;20364;-69
2022/04/24 01:55:29;;;;;;;10.20;5.93;;;9.10;86.70;;;;;;4932489;29;20117;-69
2022/04/24 01:57:55;;;;;;;11.15;5.50;;;9.00;86.80;;;;;;4936906;29;20042;-69
2022/04/24 02:00:20;;;;;;;11.10;6.75;;;9.00;86.80;;;;;;4918677;29;20512;-69
2022/04/24 02:02:47;;;;;;;7.55;5.07;;;9.00;87.00;;;;;;4917612;29;20032;-68
2022/04/24 02:05:13;;;;;;;10.10;5.28;;;9.00;86.50;;;;;;4929386;29;20036;-69
2022/04/24 02:07:38;;;;;;;9.63;4.75;;;9.10;86.80;;;;;;4935544;29;20092;-69
2022/04/24 02:10:04;;;;;;;9.70;5.22;;;9.10;87.00;;;;;;4935377;29;20111;-69
2022/04/24 02:12:30;;;;;;;8.48;5.63;;;9.00;86.70;;;;;;4920717;29;20032;-69
2022/04/24 02:14:55;;;;;;;9.30;5.57;;;9.00;87.20;;;;;;4918028;29;20103;-69
2022/04/24 02:17:21;;;;;;;8.82;4.88;;;9.00;87.20;;;;;;4924204;29;20035;-69
2022/04/24 02:19:46;;;;;;;9.32;5.13;;;9.00;88.00;;;;;;4934680;29;20079;-69
2022/04/24 02:22:12;;;;;;;8.15;5.18;;;9.00;87.50;;;;;;4936050;29;20870;-69
2022/04/24 02:24:37;;;;;;;9.32;5.55;;;9.00;87.80;;;;;;4935110;29;20484;-69
2022/04/24 02:27:03;;;;;;;7.28;4.88;;;8.90;88.40;;;;;;4936258;29;20084;-69
2022/04/24 02:29:29;;;;;;;7.95;5.22;;;8.90;88.10;;;;;;4935212;29;20027;-69
2022/04/24 02:31:54;;;;;;;9.82;5.88;;;8.90;88.40;;;;;;4936181;29;20027;-69
2022/04/24 02:34:20;;;;;;;10.95;5.88;;;8.80;88.60;;;;;;4925387;29;20027;-69
2022/04/24 02:36:45;;;;;;;7.82;4.95;;;8.80;88.80;;;;;;4936022;29;20071;-69
2022/04/24 02:39:11;;;;;;;8.80;5.80;;;8.70;89.00;;;;;;4934567;29;20047;-69
2022/04/24 02:41:36;;;;;;;9.27;5.88;;;8.70;90.00;;;;;;4936222;29;20020;-69
2022/04/24 02:44:02;;;;;;;12.35;5.32;;;8.60;89.60;;;;;;4932650;29;20399;-69
2022/04/24 02:46:28;;;;;;;10.73;5.38;;;8.60;89.40;;;;;;4923189;29;20115;-69
2022/04/24 02:48:53;;;;;;;8.10;5.47;;;8.60;89.60;;;;;;4932691;29;20024;-69
2022/04/24 02:51:19;;;;;;;7.72;4.95;;;8.60;89.90;;;;;;4935833;29;20031;-70
2022/04/24 02:53:44;;;;;;;9.65;6.30;;;8.60;90.00;;;;;;4934683;29;20090;-70
2022/04/24 02:56:10;;;;;;;9.27;5.68;;;8.50;89.80;;;;;;4935530;29;20087;-69
2022/04/24 02:58:38;;;;;;;8.00;5.47;;;8.50;90.10;;;;;;4935041;29;20063;-69
2022/04/24 03:01:03;;;;;;;10.55;5.60;;;8.50;90.10;;;;;;4935435;29;20045;-69
2022/04/24 03:03:29;;;;;;;9.70;5.82;;;8.50;90.20;;;;;;4934954;29;20106;-70
2022/04/24 03:05:54;;;;;;;10.50;5.30;;;8.50;90.40;;;;;;4935289;29;20086;-70
2022/04/24 03:08:20;;;;;;;10.65;5.72;;;8.40;90.30;;;;;;4918579;29;20024;-70
2022/04/24 03:10:46;;;;;;;8.32;5.63;;;8.50;90.40;;;;;;4936295;29;20031;-69
2022/04/24 03:13:12;;;;;;;11.13;6.03;;;8.40;90.40;;;;;;4934812;29;20376;-69
2022/04/24 03:15:39;;;;;;;10.18;5.90;;;8.40;90.70;;;;;;4914320;29;20063;-70
2022/04/24 03:18:05;;;;;;;10.85;6.28;;;8.30;90.50;;;;;;4916005;29;20032;-70
2022/04/24 03:20:31;;;;;;;9.95;6.20;;;8.30;90.60;;;;;;4924059;29;20048;-69
2022/04/24 03:22:57;;;;;;;9.50;5.72;;;8.30;90.60;;;;;;4916062;29;20373;-69
2022/04/24 03:25:23;;;;;;;11.80;5.90;;;8.30;90.70;;;;;;4929050;29;20039;-69
2022/04/24 03:27:48;;;;;;;10.45;6.15;;;8.20;90.70;;;;;;4923496;29;20036;-69
2022/04/24 03:30:14;;;;;;;9.55;6.00;;;8.30;90.70;;;;;;4927918;29;20032;-69
2022/04/24 03:32:40;;;;;;;9.63;5.53;;;8.20;90.90;;;;;;4934600;29;20032;-69
2022/04/24 03:35:08;;;;;;;10.25;5.72;;;8.30;90.90;;;;;;4922888;29;20036;-68
2022/04/24 03:37:35;;;;;;;9.23;5.55;;;8.20;90.90;;;;;;4922523;29;20476;-68
2022/04/24 03:40:01;;;;;;;15.27;6.35;;;8.20;90.80;;;;;;4926074;29;20063;-68
2022/04/24 03:42:26;;;;;;;10.57;6.13;;;8.20;91.00;;;;;;4934650;29;20028;-68
2022/04/24 03:44:59;;;;;;;8.68;5.75;;;8.20;91.00;;;;;;4933878;29;20027;-70
2022/04/24 03:47:24;;;;;;;9.80;6.25;;;8.20;91.00;;;;;;4933291;29;20142;-70
2022/04/24 03:49:50;;;;;;;13.02;6.13;;;8.20;91.10;;;;;;4929484;29;20110;-69
2022/04/24 03:52:16;;;;;;;10.88;5.90;;;8.30;91.10;;;;;;4934592;29;20490;-69
2022/04/24 03:54:41;;;;;;;9.38;6.18;;;8.20;91.20;;;;;;4926034;29;20034;-69
2022/04/24 03:57:07;;;;;;;9.63;5.60;;;8.20;91.30;;;;;;4934713;29;20049;-68
2022/04/24 03:59:33;;;;;;;12.43;6.47;;;8.10;91.20;;;;;;4933535;29;20035;-70
2022/04/24 04:01:58;;;;;;;9.35;5.93;;;8.20;91.30;;;;;;4933670;29;20571;-70
2022/04/24 04:04:25;;;;;;;11.95;6.05;;;8.10;91.40;;;;;;4933878;29;20036;-68
2022/04/24 04:06:51;;;;;;;11.57;6.22;;;8.10;91.50;;;;;;4933899;29;20027;-69
2022/04/24 04:09:16;;;;;;;12.88;7.13;;;8.10;91.60;;;;;;4901671;29;20047;-68
2022/04/24 04:11:41;;;;;;;10.80;6.22;;;8.10;91.60;;;;;;4934462;29;20031;-69
2022/04/24 04:14:07;;;;;;;9.38;5.90;;;8.10;91.70;;;;;;4932374;29;20107;-69
2022/04/24 04:16:33;;;;;;;10.35;5.68;;;8.10;91.60;;;;;;4934314;29;20547;-69
2022/04/24 04:18:58;;;;;;;12.80;6.47;;;8.10;91.60;;;;;;4933688;29;20133;-69
2022/04/24 04:21:24;;;;;;;10.60;5.95;;;8.10;91.70;;;;;;4934345;29;20039;-68
2022/04/24 04:23:50;;;;;;;9.25;6.30;;;8.10;91.80;;;;;;4932273;29;20094;-69
2022/04/24 04:26:17;;;;;;;10.45;6.65;;;8.10;91.80;;;;;;4915515;29;20040;-68
2022/04/24 04:28:44;;;;;;;10.82;6.38;;;8.10;91.90;;;;;;4915143;29;20035;-68
2022/04/24 04:31:10;;;;;;;10.10;5.78;;;8.10;91.90;;;;;;4932861;29;20040;-69
2022/04/24 04:33:36;;;;;;;10.80;6.05;;;8.10;92.00;;;;;;4916762;29;20028;-69
2022/04/24 04:36:01;;;;;;;10.35;6.47;;;8.10;92.00;;;;;;4933177;29;20511;-69
2022/04/24 04:38:27;;;;;;;10.50;7.18;;;8.10;92.00;;;;;;4934230;29;20118;-69
2022/04/24 04:40:52;;;;;;;11.02;6.53;;;8.10;92.10;;;;;;4933176;29;20117;-69
2022/04/24 04:43:18;;;;;;;9.75;6.43;;;8.10;92.00;;;;;;4929348;29;20023;-69
2022/04/24 04:45:43;;;;;;;11.52;6.93;;;8.20;92.10;;;;;;4917635;29;20046;-68
2022/04/24 04:48:09;;;;;;;12.35;6.22;;;8.20;92.20;;;;;;4933825;29;20104;-69
2022/04/24 04:50:34;;;;;;;11.15;6.25;;;8.10;92.10;;;;;;4933861;29;20035;-69
2022/04/24 04:53:00;;;;;;;11.32;6.90;;;8.20;92.10;;;;;;4933859;29;20031;-68
2022/04/24 04:55:25;;;;;;;11.98;6.63;;;8.20;92.10;;;;;;4920189;29;20025;-69
2022/04/24 04:57:51;;;;;;;10.07;6.82;;;8.30;92.10;;;;;;4922237;29;20110;-70
2022/04/24 05:00:17;;;;;;;11.27;6.88;;;8.30;92.20;;;;;;4932045;29;20043;-69
2022/04/24 05:02:43;;;;;;;11.90;6.45;;;8.40;92.10;;;;;;4932882;29;20024;-68
2022/04/24 05:05:09;;;;;;;13.98;6.78;;;8.40;92.10;;;;;;4925153;29;20031;-68
2022/04/24 05:07:35;;;;;;;15.32;7.57;;;8.40;92.10;;;;;;4934016;29;20099;-69
2022/04/24 05:10:01;;;;;;;9.93;6.60;;;8.40;92.10;;;;;;4932424;29;20083;-69
2022/04/24 05:12:27;;;;;;;11.60;6.80;;;8.50;92.10;;;;;;4916425;29;20020;-70
2022/04/24 05:14:53;;;;;;;10.05;6.50;;;8.50;92.10;;;;;;4932485;29;20063;-70
2022/04/24 05:17:19;;;;;;;13.90;6.78;;;8.60;92.10;;;;;;4934163;29;20031;-70
2022/04/24 05:19:44;;;;;;;12.90;7.43;;;8.60;92.00;;;;;;4933005;29;20083;-69
2022/04/24 05:22:10;;;;;;;12.02;6.82;;;8.70;92.00;;;;;;4933372;29;20434;-69
2022/04/24 05:24:35;;;;;;;10.05;6.97;;;8.70;92.00;;;;;;4932912;29;20031;-68
2022/04/24 05:27:01;;;;;;;10.52;6.97;;;8.80;92.00;;;;;;4919250;29;20546;-69
2022/04/24 05:29:27;;;;;;;10.82;6.47;;;8.90;91.90;;;;;;4935582;29;20024;-69
2022/04/24 05:31:53;;;;;;;11.80;6.78;;;9.00;91.90;;;;;;4937483;29;20383;-69
2022/04/24 05:34:19;;;;;;;10.35;7.13;;;9.00;91.90;;;;;;4931686;29;20115;-69
2022/04/24 05:36:44;;;;;;;13.15;7.35;;;9.10;91.70;;;;;;4918474;29;20491;-68
2022/04/24 05:39:10;;;;;;;14.95;7.03;;;9.20;91.60;;;;;;4927348;29;20479;-69
2022/04/24 05:41:35;;;;;;;11.05;7.13;;;9.20;91.50;;;;;;4937609;29;20030;-69
2022/04/24 05:44:01;;;;;;;13.20;7.70;;;9.30;91.40;;;;;;4935155;29;20020;-69
2022/04/24 05:46:26;;;;;;;12.13;7.10;;;9.40;91.30;;;;;;4937254;29;20035;-70
2022/04/24 05:48:52;;;;;;;12.30;7.18;;;9.40;91.20;;;;;;4939376;29;20081;-68
2022/04/24 05:51:17;;;;;;;11.75;7.07;;;9.50;91.10;;;;;;4936938;29;20028;-68
2022/04/24 05:53:43;;;;;;;9.40;6.53;;;9.50;91.00;;;;;;4935310;29;20091;-70
2022/04/24 05:56:08;;;;;;;10.70;6.75;;;9.60;91.00;;;;;;4936644;29;20115;-71
2022/04/24 05:58:34;;;;;;;11.63;6.63;;;9.50;90.80;;;;;;4933839;29;20095;-72
2022/04/24 06:00:59;;;;;;;9.18;6.53;;;9.70;90.80;;;;;;4919169;29;20130;-68
2022/04/24 06:03:25;;;;;;;9.52;6.03;;;9.60;90.70;;;;;;4918100;29;20865;-69
2022/04/24 06:05:50;;;;;;;12.60;7.13;;;9.60;90.80;;;;;;4922864;29;20032;-70
2022/04/24 06:08:15;;;;;;;9.35;6.25;;;9.60;90.80;;;;;;4918583;29;20392;-70
2022/04/24 06:10:42;;;;;;;7.63;5.78;;;9.70;90.80;;;;;;4926313;29;20048;-69
2022/04/24 06:13:08;;;;;;;9.75;5.85;;;9.80;90.80;;;;;;4921428;29;20032;-70
2022/04/24 06:15:34;;;;;;;10.65;6.53;;;9.80;90.70;;;;;;4924869;29;20024;-70
2022/04/24 06:17:59;;;;;;;12.45;7.40;;;9.90;90.50;;;;;;4935988;29;20028;-70
2022/04/24 06:20:27;;;;;;;11.25;6.90;;;10.00;90.60;;;;;;4930662;29;20040;-70
2022/04/24 06:22:57;;;;;;;11.38;6.32;;;10.10;90.40;;;;;;4917371;29;20085;-69
2022/04/24 06:25:33;;;;;;;12.52;6.90;;;10.10;90.30;;;;;;4929219;29;20040;-70
2022/04/24 06:28:00;;;;;;;10.18;6.30;;;10.20;90.30;;;;;;4935661;29;20024;-69
2022/04/24 06:30:28;;;;;;;9.85;6.38;;;10.30;90.40;;;;;;4933779;29;20035;-68
2022/04/24 06:32:53;;;;;;;9.95;6.35;;;10.30;90.20;;;;;;4909837;29;20115;-74
2022/04/24 06:35:20;;;;;;;8.68;6.10;;;10.40;90.20;;;;;;4927540;29;20540;-69
2022/04/24 06:37:47;;;;;;;12.45;6.45;;;10.40;90.10;;;;;;4932623;29;20142;-67
2022/04/24 06:40:15;;;;;;;9.55;6.32;;;10.50;90.00;;;;;;4927572;29;20035;-68
2022/04/24 06:43:06;;;;;;;13.02;7.50;;;10.70;90.00;;;;;;4934880;29;20028;-68
2022/04/24 06:45:34;;;;;;;9.10;6.38;;;10.80;89.90;;;;;;4926173;29;20039;-68
2022/04/24 06:48:07;;;;;;;12.77;6.90;;;10.80;89.20;;;;;;4935438;29;20027;-67
2022/04/24 06:50:34;;;;;;;13.10;7.35;;;10.90;89.00;;;;;;4931946;29;20028;-66
2022/04/24 06:53:01;;;;;;;8.70;6.22;;;11.00;88.70;;;;;;4932014;29;20035;-67
2022/04/24 06:55:29;;;;;;;14.70;7.57;;;11.10;88.20;;;;;;4929270;29;20024;-67
2022/04/24 06:57:55;;;;;;;12.30;7.20;;;11.10;88.10;;;;;;4932334;29;20028;-68
2022/04/24 07:00:22;;;;;;;10.88;7.28;;;11.20;88.00;;;;;;4916825;29;20804;-68
2022/04/24 07:02:48;;;;;;;10.10;7.28;;;11.30;87.60;;;;;;4932210;29;20450;-66
2022/04/24 07:05:14;;;;;;;8.57;6.47;;;11.30;87.20;;;;;;4927007;29;20039;-68
2022/04/24 07:07:41;;;;;;;9.05;6.85;;;11.40;87.30;;;;;;4934162;29;20030;-67
2022/04/24 07:10:07;;;;;;;9.25;6.28;;;11.50;87.00;;;;;;4929739;29;20495;-68
2022/04/24 07:12:42;;;;;;;11.38;7.60;;;11.60;86.70;;;;;;4935103;29;20031;-66
2022/04/24 07:15:08;;;;;;;10.77;6.80;;;11.70;86.30;;;;;;4929485;29;20063;-68
2022/04/24 07:17:34;;;;;;;10.80;7.28;;;11.70;85.80;;;;;;4934964;29;20055;-67
2022/04/24 07:19:59;;;;;;;10.27;6.38;;;11.80;85.40;;;;;;4928560;29;20099;-67
2022/04/24 07:22:24;;;;;;;14.85;7.82;;;11.80;85.40;;;;;;4916713;29;20059;-67
2022/04/24 07:24:50;;;;;;;9.88;7.03;;;11.90;84.80;;;;;;4926701;29;20562;-68
2022/04/24 07:27:16;;;;;;;11.43;6.97;;;12.00;84.90;;;;;;4931309;29;20123;-68
2022/04/24 07:29:41;;;;;;;9.63;6.65;;;12.10;84.40;;;;;;4933132;29;20032;-68
2022/04/24 07:32:07;;;;;;;9.13;6.55;;;12.10;83.40;;;;;;4926248;29;20033;-68
2022/04/24 07:34:33;;;;;;;7.93;6.10;;;12.20;83.10;;;;;;4928803;29;20553;-68
2022/04/24 07:36:59;;;;;;;7.15;5.57;;;12.20;82.80;;;;;;4927441;29;20126;-68
2022/04/24 07:39:24;;;;;;;10.80;5.57;;;12.30;82.60;;;;;;4929903;29;20078;-68
2022/04/24 07:41:50;;;;;;;9.95;6.15;;;12.40;82.60;;;;;;4933965;29;20063;-68
2022/04/24 07:44:15;;;;;;;7.78;5.72;;;12.60;82.00;;;;;;4913023;29;20090;-68
2022/04/24 07:46:41;;;;;;;8.15;5.53;;;12.60;80.20;;;;;;4931929;29;20049;-67
2022/04/24 07:49:06;;;;;;;7.25;5.03;;;12.80;80.30;;;;;;4931272;29;20031;-67
2022/04/24 07:51:32;;;;;;;8.15;5.38;;;12.90;79.90;;;;;;4934392;29;20035;-67
2022/04/24 07:53:57;;;;;;;7.45;5.57;;;13.00;79.40;;;;;;4923625;29;20132;-67
2022/04/24 07:56:23;;;;;;;7.72;5.75;;;13.10;79.00;;;;;;4932353;29;20747;-67
2022/04/24 07:58:48;;;;;;;8.93;5.38;;;13.10;77.90;;;;;;4929859;29;20016;-68
2022/04/24 08:01:16;;;;;;;7.95;5.88;;;13.20;78.00;;;;;;4929196;29;20420;-68
2022/04/24 08:03:42;;;;;;;7.07;5.35;;;13.30;77.50;;;;;;4918240;29;20044;-67
2022/04/24 08:06:07;;;;;;;9.27;5.15;;;13.30;77.70;;;;;;4932531;29;20035;-67
2022/04/24 08:08:33;;;;;;;8.75;5.22;;;13.40;77.40;;;;;;4931240;29;20136;-68
2022/04/24 08:10:59;;;;;;;8.45;4.82;;;13.50;76.90;;;;;;4930362;29;20036;-68
2022/04/24 08:13:25;;;;;;;8.77;5.20;;;13.60;76.90;;;;;;4932511;29;20118;-68
2022/04/24 08:15:51;;;;;;;6.88;5.00;;;13.80;76.20;;;;;;4932539;29;20101;-67
2022/04/24 08:18:17;;;;;;;7.07;5.20;;;13.90;75.70;;;;;;4913106;29;20043;-67
2022/04/24 08:20:44;;;;;;;6.95;4.70;;;13.90;74.70;;;;;;4930204;29;20039;-67
2022/04/24 08:23:12;;;;;;;6.20;4.70;;;14.00;73.50;;;;;;4928540;29;20180;-67
2022/04/24 08:25:38;;;;;;;8.13;4.80;;;14.00;73.60;;;;;;4927889;29;20027;-67
2022/04/24 08:28:06;;;;;;;7.35;4.68;;;14.10;73.20;;;;;;4916220;29;20051;-67
2022/04/24 08:30:34;;;;;;;7.97;5.45;;;14.10;73.00;;;;;;4932706;29;20031;-67
2022/04/24 08:33:00;;;;;;;7.18;4.32;;;14.20;73.40;;;;;;4932234;29;20038;-68
2022/04/24 08:35:25;;;;;;;7.65;5.15;;;14.30;72.80;;;;;;4932594;29;20431;-68
2022/04/24 08:37:51;;;;;;;5.60;3.92;;;14.40;72.50;;;;;;4927179;29;20124;-68
2022/04/24 08:40:19;;;;;;;7.38;4.63;;;14.40;72.30;;;;;;4932512;29;20032;-67
2022/04/24 08:42:44;;;;;;;8.13;4.40;;;14.60;72.00;;;;;;4926801;29;20398;-68
2022/04/24 08:45:13;;;;;;;5.90;4.68;;;14.60;71.50;;;;;;4931204;29;20043;-68
2022/04/24 08:47:39;;;;;;;6.60;4.18;;;14.70;71.50;;;;;;4933548;29;20475;-68
2022/04/24 08:50:05;;;;;;;7.00;4.60;;;14.80;70.70;;;;;;4931592;29;20055;-67
2022/04/24 08:52:32;;;;;;;7.50;4.70;;;14.90;70.50;;;;;;4925060;29;20024;-68
2022/04/24 08:54:58;;;;;;;6.40;4.32;;;15.00;70.00;;;;;;4931337;29;20035;-68
2022/04/24 08:57:26;;;;;;;6.03;4.45;;;15.10;69.60;;;;;;4924668;29;20091;-68
2022/04/24 08:59:56;;;;;;;14.93;4.57;;;15.20;69.90;;;;;;4919164;29;20515;-67
2022/04/24 09:02:22;;;;;;;7.22;4.60;;;15.20;68.80;;;;;;4929211;29;20038;-68
2022/04/24 09:04:48;;;;;;;6.65;4.95;;;15.30;68.00;;;;;;4923677;29;20483;-67
2022/04/24 09:07:17;;;;;;;6.32;4.53;;;15.30;68.30;;;;;;4930120;29;20028;-68
2022/04/24 09:09:51;;;;;;;6.10;4.45;;;15.40;68.10;;;;;;4924856;29;20027;-68
2022/04/24 09:12:25;;;;;;;6.85;4.35;;;15.50;67.70;;;;;;4919105;29;20427;-68
2022/04/24 09:14:53;;;;;;;6.20;4.13;;;15.50;67.80;;;;;;4934490;29;20072;-68
2022/04/24 09:17:25;;;;;;;8.23;4.68;;;15.60;66.70;;;;;;4935558;29;20388;-68
2022/04/24 09:19:51;;;;;;;6.93;4.78;;;15.60;66.70;;;;;;4935221;29;20040;-67
2022/04/24 09:22:17;;;;;;;7.50;4.55;;;15.70;66.90;;;;;;4933979;29;20028;-67
2022/04/24 09:24:55;;;;;;;8.27;4.47;;;15.70;66.90;;;;;;4928829;29;20061;-67
2022/04/24 09:27:26;;;;;;;6.63;4.40;;;15.70;67.20;;;;;;4922589;29;20451;-67
2022/04/24 09:29:54;;;;;;;7.30;5.05;;;15.80;67.30;;;;;;4934663;29;20032;-67
2022/04/24 09:32:20;;;;;;;8.50;5.88;;;15.90;67.20;;;;;;4932745;29;20024;-67
2022/04/24 09:34:46;;;;;;;9.18;4.95;;;15.90;67.10;;;;;;4936476;29;20506;-67
2022/04/24 09:37:12;;;;;;;6.47;4.72;;;15.90;66.80;;;;;;4932041;29;20032;-67
2022/04/24 09:39:38;;;;;;;9.98;5.20;;;15.90;66.10;;;;;;4933740;29;20472;-67
2022/04/24 09:42:14;;;;;;;6.03;4.85;;;16.00;66.30;;;;;;4932766;29;20392;-67
2022/04/24 09:44:50;;;;;;;8.68;5.55;;;15.90;66.30;;;;;;4931268;29;20047;-67
2022/04/24 09:47:26;;;;;;;9.88;5.75;;;16.10;65.60;;;;;;4918757;29;20051;-66
2022/04/24 09:49:52;;;;;;;7.35;5.38;;;16.00;65.30;;;;;;4909251;29;20036;-67
2022/04/24 09:52:22;;;;;;;11.25;5.93;;;16.10;65.70;;;;;;4930400;29;20048;-67
2022/04/24 09:54:51;;;;;;;7.32;5.57;;;16.20;65.60;;;;;;4933875;29;20411;-67
2022/04/24 09:57:18;;;;;;;6.53;5.13;;;16.20;64.90;;;;;;4935005;29;20036;-67
2022/04/24 09:59:45;;;;;;;7.93;5.40;;;16.20;65.30;;;;;;4932333;29;20030;-67
2022/04/24 10:02:14;;;;;;;8.18;5.28;;;16.30;65.10;;;;;;4933843;29;20043;-67
2022/04/24 10:04:40;;;;;;;5.93;5.00;;;16.30;64.50;;;;;;4919243;29;20031;-67
2022/04/24 10:07:08;;;;;;;5.72;4.68;;;16.30;64.40;;;;;;4934795;29;20028;-67
2022/04/24 10:09:36;;;;;;;7.35;4.90;;;16.50;65.00;;;;;;4935804;29;20392;-68
2022/04/24 10:12:06;;;;;;;8.32;4.88;;;16.50;64.70;;;;;;4935786;29;20483;-67
2022/04/24 10:14:45;;;;;;;6.82;5.32;;;16.60;65.00;;;;;;4934296;29;20038;-67
2022/04/24 10:17:43;;;;;;;9.52;4.90;;;16.70;64.00;;;;;;4934955;29;20039;-67
2022/04/24 10:20:20;;;;;;;7.00;4.50;;;16.80;64.30;;;;;;4933490;29;20058;-66
2022/04/24 10:22:47;;;;;;;7.78;4.80;;;16.90;63.60;;;;;;4935777;29;20147;-67
2022/04/24 10:25:15;;;;;;;7.45;4.80;;;16.90;62.60;;;;;;4930441;29;20036;-66
2022/04/24 10:27:42;;;;;;;7.30;4.72;;;16.70;62.90;;;;;;4933551;29;20028;-66
2022/04/24 10:30:13;;;;;;;5.22;4.53;;;16.70;63.10;;;;;;4934998;29;20095;-67
2022/04/24 10:32:39;;;;;;;7.63;4.32;;;16.70;63.20;;;;;;4938264;29;20062;-67
2022/04/24 10:35:15;;;;;;;6.45;4.78;;;16.70;62.80;;;;;;4926743;29;20063;-67
2022/04/24 10:37:41;;;;;;;6.22;3.97;;;16.70;63.10;;;;;;4936104;29;20114;-67
2022/04/24 10:40:13;;;;;;;6.93;4.38;;;16.80;63.20;;;;;;4934523;29;20162;-66
2022/04/24 10:42:39;;;;;;;8.60;4.82;;;16.90;62.90;;;;;;4934361;29;20028;-67
2022/04/24 10:45:16;;;;;;;6.13;4.15;;;17.00;62.60;;;;;;4932208;29;20024;-67
2022/04/24 10:47:53;;;;;;;6.20;4.38;;;17.10;62.30;;;;;;4935101;29;20024;-67
2022/04/24 10:50:20;;;;;;;4.30;3.70;;;17.30;61.50;;;;;;4935748;29;20126;-67
2022/04/24 10:52:48;;;;;;;7.07;3.97;;;17.40;61.30;;;;;;4936246;29;20043;-68
2022/04/24 10:55:16;;;;;;;4.72;4.00;;;17.50;60.70;;;;;;4917280;29;20032;-68
2022/04/24 10:57:46;;;;;;;5.95;4.00;;;17.60;59.90;;;;;;4914648;29;20399;-68
2022/04/24 11:00:19;;;;;;;5.15;3.92;;;17.60;59.40;;;;;;4929320;29;20032;-68
2022/04/24 11:02:47;;;;;;;5.70;3.53;;;17.60;59.60;;;;;;4934920;29;20040;-68
2022/04/24 11:05:17;;;;;;;5.18;3.70;;;17.50;58.90;;;;;;4935468;29;20031;-67
2022/04/24 11:07:44;;;;;;;6.10;3.70;;;17.60;58.90;;;;;;4934318;29;20055;-68
2022/04/24 11:10:10;;;;;;;4.72;3.70;;;17.70;58.20;;;;;;4915862;29;20102;-69
2022/04/24 11:12:37;;;;;;;5.75;3.85;;;17.80;57.70;;;;;;4926382;29;20039;-68
2022/04/24 11:15:11;;;;;;;6.22;3.65;;;17.90;57.40;;;;;;4923826;29;20043;-67
2022/04/24 11:17:37;;;;;;;6.00;3.80;;;17.90;57.70;;;;;;4926295;29;20042;-68
2022/04/24 11:20:10;;;;;;;7.45;3.60;;;18.00;57.00;;;;;;4931688;29;20098;-67
2022/04/24 11:23:08;;;;;;;7.07;3.75;;;18.10;57.80;;;;;;4933212;29;20051;-67
2022/04/24 11:25:39;;;;;;;4.90;3.78;;;18.10;57.50;;;;;;4925574;29;20044;-67
2022/04/24 11:28:05;;;;;;;4.88;3.53;;;18.30;57.30;;;;;;4931633;29;20031;-68
2022/04/24 11:30:32;;;;;;;4.85;3.75;;;18.20;56.80;;;;;;4930155;29;20091;-66
2022/04/24 11:33:08;;;;;;;6.10;4.22;;;18.20;56.80;;;;;;4934304;29;20507;-67
2022/04/24 11:35:37;;;;;;;5.93;3.80;;;18.10;56.80;;;;;;4932191;29;20032;-67
2022/04/24 11:38:04;;;;;;;5.70;3.45;;;18.10;57.40;;;;;;4925824;29;20031;-68
2022/04/24 11:40:30;;;;;;;4.60;3.60;;;18.20;56.60;;;;;;4919341;29;20071;-67
2022/04/24 11:43:06;;;;;;;6.45;3.38;;;18.10;56.20;;;;;;4917978;29;20066;-67
2022/04/24 11:51:12;;;;;;;6.35;3.85;;;17.80;56.50;;;;;;4925082;29;20063;-69
2022/04/24 11:53:38;;;;;;;6.25;3.45;;;17.70;56.50;;;;;;4926122;29;20056;-67
2022/04/24 11:56:04;;;;;;;4.30;3.50;;;17.70;56.10;;;;;;4934049;29;20032;-67
2022/04/24 11:58:38;;;;;;;5.00;3.47;;;17.80;56.00;;;;;;4933562;29;20039;-66
2022/04/24 12:01:17;;;;;;;6.72;2.97;;;17.90;56.20;;;;;;4932932;29;20031;-66
2022/04/24 12:03:45;;;;;;;5.97;3.63;;;18.00;56.40;;;;;;4922721;29;20638;-66
2022/04/24 12:06:11;;;;;;;6.13;3.22;;;18.00;55.40;;;;;;4930364;29;20063;-66
2022/04/24 12:08:45;;;;;;;4.68;3.10;;;18.00;53.90;;;;;;4926188;29;20055;-67
2022/04/24 12:11:23;;;;;;;3.72;3.00;;;18.10;54.00;;;;;;4920051;29;20056;-67
2022/04/24 12:14:02;;;;;;;9.15;3.03;;;18.10;53.50;;;;;;4922357;29;20032;-67
2022/04/24 12:16:28;;;;;;;4.07;3.15;;;18.20;52.40;;;;;;4927475;29;20042;-67
2022/04/24 12:18:56;;;;;;;5.10;3.78;;;18.10;52.70;;;;;;4923976;29;20510;-67
2022/04/24 12:21:22;;;;;;;5.97;3.15;;;18.00;53.30;;;;;;4931772;29;20459;-66
2022/04/24 12:23:52;;;;;;;5.60;3.40;;;18.00;53.70;;;;;;4928633;29;20054;-67
2022/04/24 12:26:18;;;;;;;6.50;3.55;;;18.10;54.30;;;;;;4914643;29;20415;-67
2022/04/24 12:28:43;;;;;;;6.45;3.10;;;18.20;53.30;;;;;;4932466;29;20020;-66
2022/04/24 12:31:26;;;;;;;4.95;3.50;;;18.20;52.30;;;;;;4928565;29;20044;-67
2022/04/24 12:33:55;;;;;;;5.60;3.08;;;18.20;52.10;;;;;;4930693;29;20202;-67
2022/04/24 12:36:21;;;;;;;4.30;3.28;;;18.20;52.80;;;;;;4927025;29;20055;-66
2022/04/24 12:38:55;;;;;;;4.70;3.33;;;18.30;53.40;;;;;;4932275;29;20032;-66
2022/04/24 12:41:24;;;;;;;4.80;3.63;;;18.30;53.00;;;;;;4919223;29;20043;-67
2022/04/24 12:43:50;;;;;;;4.38;3.28;;;18.30;53.10;;;;;;4929787;29;20091;-67
2022/04/24 12:46:15;;;;;;;4.15;3.30;;;18.20;53.50;;;;;;4928903;29;20047;-67
2022/04/24 12:48:50;;;;;;;7.68;3.95;;;18.20;53.60;;;;;;4932205;29;20027;-67
2022/04/24 12:51:17;;;;;;;3.92;3.17;;;18.10;53.10;;;;;;4915062;29;20030;-67
2022/04/24 12:53:42;;;;;;;5.30;2.83;;;18.10;53.40;;;;;;4932048;29;20066;-67